sensor_id;sensor_type;location;lat;lon;timestamp;P1;durP1;ratioP1;P2;durP2;ratioP2
54460;SDS011;40371;49.414;11.010;2023-03-20T17:42:37;6.43;;;5.70;;
54460;SDS011;40371;49.414;11.010;2023-03-20T17:45:03;5.83;;;5.03;;
54460;SDS011;40371;49.414;11.010;2023-03-20T17:47:29;6.57;;;5.10;;
54460;SDS011;40371;49.414;11.010;2023-03-20T17:49:55;6.80;;;5.37;;
54460;SDS011;40371;49.414;11.010;2023-03-20T17:52:22;7.13;;;5.30;;
54460;SDS011;40371;49.414;11.010;2023-03-20T17:54:49;5.17;;;4.67;;
54460;SDS011;40371;49.414;11.010;2023-03-20T17:59:52;5.83;;;5.17;;
54460;SDS011;40371;49.414;11.010;2023-03-20T18:02:18;5.43;;;4.93;;
54460;SDS011;40371;49.414;11.010;2023-03-20T18:04:44;6.40;;;5.30;;
54460;SDS011;40371;49.414;11.010;2023-03-20T18:07:10;7.17;;;5.70;;
54460;SDS011;40371;49.414;11.010;2023-03-20T18:09:37;6.53;;;5.77;;
54460;SDS011;40371;49.414;11.010;2023-03-20T18:12:03;7.83;;;7.03;;
54460;SDS011;40371;49.414;11.010;2023-03-20T18:14:29;7.97;;;7.27;;
54460;SDS011;40371;49.414;11.010;2023-03-20T18:16:55;7.47;;;6.77;;
54460;SDS011;40371;49.414;11.010;2023-03-20T18:19:22;7.10;;;6.40;;
54460;SDS011;40371;49.414;11.010;2023-03-20T18:21:51;7.20;;;6.53;;
54460;SDS011;40371;49.414;11.010;2023-03-20T18:24:17;6.83;;;6.20;;
54460;SDS011;40371;49.414;11.010;2023-03-20T18:26:43;7.53;;;6.40;;
54460;SDS011;40371;49.414;11.010;2023-03-20T18:29:10;6.53;;;5.90;;
54460;SDS011;40371;49.414;11.010;2023-03-20T18:31:36;6.77;;;6.17;;
54460;SDS011;40371;49.414;11.010;2023-03-20T18:34:02;7.00;;;6.40;;
54460;SDS011;40371;49.414;11.010;2023-03-20T18:36:27;8.07;;;7.37;;
54460;SDS011;40371;49.414;11.010;2023-03-20T18:38:53;10.00;;;8.60;;
54460;SDS011;40371;49.414;11.010;2023-03-20T18:41:19;17.00;;;10.60;;
54460;SDS011;40371;49.414;11.010;2023-03-20T18:43:45;10.73;;;9.63;;
54460;SDS011;40371;49.414;11.010;2023-03-20T18:46:12;14.13;;;12.43;;
54460;SDS011;40371;49.414;11.010;2023-03-20T18:48:39;13.53;;;12.13;;
54460;SDS011;40371;49.414;11.010;2023-03-20T18:51:06;13.03;;;11.73;;
54460;SDS011;40371;49.414;11.010;2023-03-20T18:53:32;12.43;;;11.13;;
54460;SDS011;40371;49.414;11.010;2023-03-20T18:55:57;10.37;;;9.37;;
54460;SDS011;40371;49.414;11.010;2023-03-20T18:58:26;9.30;;;8.40;;
54460;SDS011;40371;49.414;11.010;2023-03-20T19:00:53;10.10;;;9.03;;
54460;SDS011;40371;49.414;11.010;2023-03-20T19:03:20;9.03;;;7.83;;
54460;SDS011;40371;49.414;11.010;2023-03-20T19:05:52;8.17;;;7.47;;
54460;SDS011;40371;49.414;11.010;2023-03-20T19:08:22;7.93;;;6.63;;
54460;SDS011;40371;49.414;11.010;2023-03-20T19:10:48;7.30;;;6.60;;
54460;SDS011;40371;49.414;11.010;2023-03-20T19:13:15;7.97;;;7.00;;
54460;SDS011;40371;49.414;11.010;2023-03-20T19:15:43;8.33;;;7.50;;
54460;SDS011;40371;49.414;11.010;2023-03-20T19:18:13;8.13;;;7.43;;
54460;SDS011;40371;49.414;11.010;2023-03-20T19:20:42;9.60;;;7.80;;
54460;SDS011;40371;49.414;11.010;2023-03-20T19:23:10;9.67;;;8.73;;
54460;SDS011;40371;49.414;11.010;2023-03-20T19:25:37;9.50;;;8.33;;
54460;SDS011;40371;49.414;11.010;2023-03-20T19:28:05;9.07;;;8.27;;
54460;SDS011;40371;49.414;11.010;2023-03-20T19:30:35;9.83;;;8.77;;
54460;SDS011;40371;49.414;11.010;2023-03-20T19:33:02;11.03;;;9.23;;
54460;SDS011;40371;49.414;11.010;2023-03-20T19:35:29;9.13;;;8.23;;
54460;SDS011;40371;49.414;11.010;2023-03-20T19:37:55;9.80;;;8.87;;
54460;SDS011;40371;49.414;11.010;2023-03-20T19:40:23;10.80;;;9.03;;
54460;SDS011;40371;49.414;11.010;2023-03-20T19:42:51;13.90;;;10.53;;
54460;SDS011;40371;49.414;11.010;2023-03-20T19:45:17;14.60;;;10.53;;
54460;SDS011;40371;49.414;11.010;2023-03-20T19:47:43;15.37;;;12.80;;
54460;SDS011;40371;49.414;11.010;2023-03-20T19:50:25;15.07;;;9.77;;
54460;SDS011;40371;49.414;11.010;2023-03-20T19:52:52;13.73;;;9.53;;
54460;SDS011;40371;49.414;11.010;2023-03-20T19:55:18;9.87;;;8.80;;
54460;SDS011;40371;49.414;11.010;2023-03-20T19:57:44;10.30;;;8.00;;
54460;SDS011;40371;49.414;11.010;2023-03-20T20:00:11;8.83;;;7.57;;
54460;SDS011;40371;49.414;11.010;2023-03-20T20:02:38;9.10;;;8.23;;
54460;SDS011;40371;49.414;11.010;2023-03-20T20:05:05;10.33;;;9.33;;
54460;SDS011;40371;49.414;11.010;2023-03-20T20:07:31;17.93;;;15.97;;
54460;SDS011;40371;49.414;11.010;2023-03-20T20:09:57;13.10;;;11.23;;
54460;SDS011;40371;49.414;11.010;2023-03-20T20:12:22;8.77;;;7.97;;
54460;SDS011;40371;49.414;11.010;2023-03-20T20:14:48;7.57;;;6.67;;
54460;SDS011;40371;49.414;11.010;2023-03-20T20:17:17;7.97;;;6.83;;
54460;SDS011;40371;49.414;11.010;2023-03-20T20:19:42;7.97;;;7.27;;
54460;SDS011;40371;49.414;11.010;2023-03-20T20:22:08;6.90;;;6.30;;
54460;SDS011;40371;49.414;11.010;2023-03-20T20:24:33;7.20;;;6.60;;
54460;SDS011;40371;49.414;11.010;2023-03-20T20:26:59;7.37;;;6.70;;
54460;SDS011;40371;49.414;11.010;2023-03-20T20:29:25;6.77;;;5.97;;
54460;SDS011;40371;49.414;11.010;2023-03-20T20:31:51;5.90;;;5.40;;
54460;SDS011;40371;49.414;11.010;2023-03-20T20:34:16;6.50;;;5.90;;
54460;SDS011;40371;49.414;11.010;2023-03-20T20:36:43;7.50;;;5.00;;
54460;SDS011;40371;49.414;11.010;2023-03-20T20:39:09;5.70;;;4.77;;
54460;SDS011;40371;49.414;11.010;2023-03-20T20:41:36;5.37;;;4.87;;
54460;SDS011;40371;49.414;11.010;2023-03-20T20:44:01;5.47;;;5.07;;
54460;SDS011;40371;49.414;11.010;2023-03-20T20:46:27;7.23;;;5.83;;
54460;SDS011;40371;49.414;11.010;2023-03-20T20:48:53;5.50;;;5.10;;
54460;SDS011;40371;49.414;11.010;2023-03-20T20:51:19;5.47;;;4.97;;
54460;SDS011;40371;49.414;11.010;2023-03-20T20:53:46;5.77;;;5.07;;
54460;SDS011;40371;49.414;11.010;2023-03-20T20:56:11;6.47;;;5.87;;
54460;SDS011;40371;49.414;11.010;2023-03-20T20:58:37;6.30;;;5.70;;
54460;SDS011;40371;49.414;11.010;2023-03-20T21:01:03;6.47;;;5.77;;
54460;SDS011;40371;49.414;11.010;2023-03-20T21:03:28;6.90;;;6.17;;
54460;SDS011;40371;49.414;11.010;2023-03-20T21:05:54;6.50;;;5.87;;
54460;SDS011;40371;49.414;11.010;2023-03-20T21:08:20;6.47;;;5.87;;
54460;SDS011;40371;49.414;11.010;2023-03-20T21:10:46;6.67;;;5.83;;
54460;SDS011;40371;49.414;11.010;2023-03-20T21:13:12;7.33;;;5.60;;
54460;SDS011;40371;49.414;11.010;2023-03-20T21:15:39;6.00;;;5.40;;
54460;SDS011;40371;49.414;11.010;2023-03-20T21:18:05;5.53;;;5.00;;
54460;SDS011;40371;49.414;11.010;2023-03-20T21:20:31;5.87;;;5.20;;
54460;SDS011;40371;49.414;11.010;2023-03-20T21:22:57;6.00;;;4.90;;
54460;SDS011;40371;49.414;11.010;2023-03-20T21:25:23;4.90;;;4.50;;
54460;SDS011;40371;49.414;11.010;2023-03-20T21:27:49;5.30;;;4.67;;
54460;SDS011;40371;49.414;11.010;2023-03-20T21:30:14;4.67;;;4.20;;
54460;SDS011;40371;49.414;11.010;2023-03-20T21:32:42;5.20;;;4.20;;
54460;SDS011;40371;49.414;11.010;2023-03-20T21:35:08;5.40;;;4.70;;
54460;SDS011;40371;49.414;11.010;2023-03-20T21:37:34;4.87;;;4.37;;
54460;SDS011;40371;49.414;11.010;2023-03-20T21:40:03;8.37;;;5.43;;
54460;SDS011;40371;49.414;11.010;2023-03-20T21:42:30;7.30;;;6.60;;
54460;SDS011;40371;49.414;11.010;2023-03-20T21:44:57;7.47;;;6.10;;
54460;SDS011;40371;49.414;11.010;2023-03-20T21:47:23;7.57;;;5.10;;
54460;SDS011;40371;49.414;11.010;2023-03-20T21:49:50;5.70;;;4.30;;
54460;SDS011;40371;49.414;11.010;2023-03-20T21:52:16;6.10;;;4.43;;
54460;SDS011;40371;49.414;11.010;2023-03-20T21:54:43;6.90;;;4.07;;
54460;SDS011;40371;49.414;11.010;2023-03-20T21:57:10;5.17;;;4.30;;
54460;SDS011;40371;49.414;11.010;2023-03-20T21:59:36;4.40;;;3.97;;
54460;SDS011;40371;49.414;11.010;2023-03-20T22:02:02;5.10;;;4.60;;
54460;SDS011;40371;49.414;11.010;2023-03-20T22:04:27;7.30;;;6.03;;
54460;SDS011;40371;49.414;11.010;2023-03-20T22:06:53;6.80;;;5.67;;
54460;SDS011;40371;49.414;11.010;2023-03-20T22:09:22;6.93;;;5.53;;
54460;SDS011;40371;49.414;11.010;2023-03-20T22:11:48;5.50;;;5.00;;
54460;SDS011;40371;49.414;11.010;2023-03-20T22:14:14;4.90;;;4.47;;
54460;SDS011;40371;49.414;11.010;2023-03-20T22:16:40;7.43;;;4.90;;
54460;SDS011;40371;49.414;11.010;2023-03-20T22:19:06;5.13;;;4.63;;
54460;SDS011;40371;49.414;11.010;2023-03-20T22:21:31;6.30;;;4.20;;
54460;SDS011;40371;49.414;11.010;2023-03-20T22:23:57;5.90;;;5.40;;
54460;SDS011;40371;49.414;11.010;2023-03-20T22:26:22;5.67;;;4.97;;
54460;SDS011;40371;49.414;11.010;2023-03-20T22:28:48;7.60;;;5.10;;
54460;SDS011;40371;49.414;11.010;2023-03-20T22:31:14;5.17;;;4.67;;
54460;SDS011;40371;49.414;11.010;2023-03-20T22:33:40;6.30;;;4.13;;
54460;SDS011;40371;49.414;11.010;2023-03-20T22:36:08;5.23;;;4.10;;
54460;SDS011;40371;49.414;11.010;2023-03-20T22:38:34;5.57;;;4.03;;
54460;SDS011;40371;49.414;11.010;2023-03-20T22:41:00;5.10;;;4.57;;
54460;SDS011;40371;49.414;11.010;2023-03-20T22:43:26;6.00;;;3.90;;
54460;SDS011;40371;49.414;11.010;2023-03-20T22:45:51;5.37;;;4.87;;
54460;SDS011;40371;49.414;11.010;2023-03-20T22:48:17;4.90;;;4.30;;
54460;SDS011;40371;49.414;11.010;2023-03-20T22:50:45;5.17;;;4.47;;
54460;SDS011;40371;49.414;11.010;2023-03-20T22:53:11;4.30;;;3.90;;
54460;SDS011;40371;49.414;11.010;2023-03-20T22:55:39;4.33;;;3.93;;
54460;SDS011;40371;49.414;11.010;2023-03-20T22:58:05;5.47;;;3.83;;
54460;SDS011;40371;49.414;11.010;2023-03-20T23:00:31;5.20;;;4.43;;
54460;SDS011;40371;49.414;11.010;2023-03-20T23:02:57;5.37;;;4.70;;
54460;SDS011;40371;49.414;11.010;2023-03-20T23:05:22;6.57;;;5.40;;
54460;SDS011;40371;49.414;11.010;2023-03-20T23:07:48;8.47;;;5.93;;
54460;SDS011;40371;49.414;11.010;2023-03-20T23:10:13;7.13;;;5.20;;
54460;SDS011;40371;49.414;11.010;2023-03-20T23:12:39;8.53;;;5.77;;
54460;SDS011;40371;49.414;11.010;2023-03-20T23:15:05;7.07;;;5.20;;
54460;SDS011;40371;49.414;11.010;2023-03-20T23:17:32;6.40;;;5.00;;
54460;SDS011;40371;49.414;11.010;2023-03-20T23:19:57;5.63;;;5.10;;
54460;SDS011;40371;49.414;11.010;2023-03-20T23:22:23;5.53;;;4.60;;
54460;SDS011;40371;49.414;11.010;2023-03-20T23:24:48;6.27;;;4.33;;
54460;SDS011;40371;49.414;11.010;2023-03-20T23:27:14;5.60;;;5.10;;
54460;SDS011;40371;49.414;11.010;2023-03-20T23:29:42;5.87;;;4.70;;
54460;SDS011;40371;49.414;11.010;2023-03-20T23:32:08;5.33;;;4.80;;
54460;SDS011;40371;49.414;11.010;2023-03-20T23:34:34;6.87;;;5.10;;
54460;SDS011;40371;49.414;11.010;2023-03-20T23:37:01;5.70;;;5.10;;
54460;SDS011;40371;49.414;11.010;2023-03-20T23:39:26;6.80;;;4.93;;
54460;SDS011;40371;49.414;11.010;2023-03-20T23:41:52;6.37;;;5.77;;
54460;SDS011;40371;49.414;11.010;2023-03-20T23:44:17;5.57;;;5.10;;
54460;SDS011;40371;49.414;11.010;2023-03-20T23:46:43;5.93;;;4.70;;
54460;SDS011;40371;49.414;11.010;2023-03-20T23:49:09;5.13;;;4.53;;
54460;SDS011;40371;49.414;11.010;2023-03-20T23:51:34;5.67;;;5.00;;
54460;SDS011;40371;49.414;11.010;2023-03-20T23:54:00;5.37;;;4.53;;
54460;SDS011;40371;49.414;11.010;2023-03-20T23:56:26;4.50;;;4.00;;
54460;SDS011;40371;49.414;11.010;2023-03-20T23:58:51;7.33;;;4.00;;
